Time;durP1;ratioP1;P1;durP2;ratioP2;P2;SDS_P1;SDS_P2;PMS_P1;PMS_P2;Temp;Humidity;BMP_temperature;BMP_pressure;BME280_temperature;BME280_humidity;BME280_pressure;Samples;Min_cycle;Max_cycle;Signal;HPM_P1;HPM_P2
2023/07/06 00:02:00;;;;;;;4.50;1.60;;;12.40;99.90;;;11.85;100.00;101394.03;4169629;28;20029;-74
2023/07/06 00:04:01;;;;;;;6.40;2.25;;;12.40;99.90;;;11.82;100.00;101389.06;4187395;28;20032;-74
2023/07/06 00:06:09;;;;;;;4.18;2.10;;;12.40;99.90;;;11.78;100.00;101388.50;4170312;28;20025;-74
2023/07/06 00:08:14;;;;;;;5.10;2.30;;;12.40;99.90;;;11.67;100.00;101375.47;4153579;28;20026;-75
2023/07/06 00:10:15;;;;;;;4.43;2.20;;;12.40;99.90;;;11.68;100.00;101382.41;4170230;28;20048;-74
2023/07/06 00:12:23;;;;;;;5.63;1.90;;;12.40;99.90;;;11.65;100.00;101388.81;4187193;28;20029;-74
2023/07/06 00:14:24;;;;;;;6.75;2.30;;;12.30;99.90;;;11.67;100.00;101396.63;4187466;28;20104;-74
2023/07/06 00:16:25;;;;;;;5.80;2.20;;;12.30;99.90;;;11.63;100.00;101397.88;4186708;28;20047;-75
2023/07/06 00:18:27;;;;;;;4.07;2.65;;;12.20;99.90;;;11.55;100.00;101381.94;4153227;28;20038;-75
2023/07/06 00:20:28;;;;;;;3.92;2.17;;;12.20;99.90;;;11.57;100.00;101396.66;4159083;28;20135;-74
2023/07/06 00:22:29;;;;;;;8.07;2.00;;;12.20;99.90;;;11.55;100.00;101384.59;4186909;28;20112;-74
2023/07/06 00:24:30;;;;;;;3.28;2.42;;;12.10;99.90;;;11.50;100.00;101384.16;4187059;28;20025;-74
2023/07/06 00:26:31;;;;;;;3.35;1.83;;;12.10;99.90;;;11.49;100.00;101385.16;4153189;28;20409;-75
2023/07/06 00:28:32;;;;;;;4.03;2.03;;;12.10;99.90;;;11.47;100.00;101373.88;4153183;28;20030;-74
2023/07/06 00:32:47;;;;;;;6.88;2.78;;;12.10;99.90;;;11.43;100.00;101381.28;4187188;28;20610;-75
2023/07/06 00:34:49;;;;;;;5.78;2.63;;;12.10;99.90;;;11.45;100.00;101394.34;4152985;28;20540;-74
2023/07/06 00:36:52;;;;;;;6.95;2.22;;;12.10;99.90;;;11.43;100.00;101393.66;4187063;28;20057;-75
2023/07/06 00:38:53;;;;;;;4.45;1.95;;;12.10;99.90;;;11.40;100.00;101383.41;4187184;28;20032;-75
2023/07/06 00:40:57;;;;;;;4.53;2.53;;;12.00;99.90;;;11.41;100.00;101390.34;4169047;28;20160;-74
2023/07/06 00:42:59;;;;;;;3.70;2.30;;;12.00;99.90;;;11.40;100.00;101400.09;4186960;28;20134;-74
2023/07/06 00:45:01;;;;;;;2.70;1.92;;;12.00;99.90;;;11.33;100.00;101384.94;4185701;28;20482;-74
2023/07/06 00:47:02;;;;;;;4.40;2.28;;;12.00;99.90;;;11.33;100.00;101385.78;4169446;28;20025;-75
2023/07/06 00:49:03;;;;;;;5.97;2.25;;;11.90;99.90;;;11.24;100.00;101376.09;4187222;28;20081;-75
2023/07/06 00:51:32;;;;;;;6.85;1.98;;;11.90;99.90;;;11.26;100.00;101386.53;4169586;28;20075;-75
2023/07/06 00:53:38;;;;;;;7.50;2.10;;;11.90;99.90;;;11.28;100.00;101380.09;4169542;28;20471;-75
2023/07/06 00:55:40;;;;;;;4.00;1.85;;;11.90;99.90;;;11.30;100.00;101379.94;4185464;28;20029;-75
2023/07/06 00:57:43;;;;;;;3.72;2.03;;;11.90;99.90;;;11.29;100.00;101386.22;4186759;28;20028;-74
2023/07/06 00:59:44;;;;;;;4.10;2.05;;;11.90;99.90;;;11.26;100.00;101381.22;4169258;28;20030;-74
2023/07/06 01:01:47;;;;;;;5.63;2.75;;;11.90;99.90;;;11.30;100.00;101391.34;4186971;28;20029;-74
2023/07/06 01:03:55;;;;;;;4.50;2.60;;;11.90;99.90;;;11.28;100.00;101382.75;4168830;28;20037;-74
2023/07/06 01:06:03;;;;;;;4.20;2.60;;;11.90;99.90;;;11.26;100.00;101382.03;4201813;28;20047;-74
2023/07/06 01:08:16;;;;;;;8.48;2.78;;;11.90;99.90;;;11.25;100.00;101390.97;4169578;28;20444;-74
2023/07/06 01:10:18;;;;;;;5.18;2.45;;;11.90;99.90;;;11.09;100.00;101366.97;4169410;28;20034;-74
2023/07/06 01:12:21;;;;;;;5.88;2.75;;;11.80;99.90;;;11.18;100.00;101384.59;4168777;28;20111;-75
2023/07/06 01:14:22;;;;;;;6.35;3.00;;;11.80;99.90;;;11.14;100.00;101377.91;4168932;28;20030;-74
2023/07/06 01:17:15;;;;;;;4.70;2.08;;;11.80;99.90;;;11.11;100.00;101384.31;4168877;28;20488;-74
2023/07/06 01:19:46;;;;;;;4.47;2.50;;;11.80;99.90;;;11.08;100.00;101379.31;4170342;28;20037;-75
2023/07/06 01:22:33;;;;;;;4.97;2.10;;;11.70;99.90;;;11.02;100.00;101379.09;4186520;28;20059;-74
2023/07/06 01:25:18;;;;;;;5.25;2.25;;;11.70;99.90;;;11.03;100.00;101392.13;4179227;28;20032;-74
2023/07/06 01:27:56;;;;;;;5.55;2.20;;;11.70;99.90;;;10.95;100.00;101386.75;4153981;28;20026;-75
2023/07/06 01:30:25;;;;;;;5.97;2.78;;;11.60;99.90;;;10.95;100.00;101386.75;4186426;28;20055;-74
2023/07/06 01:32:31;;;;;;;6.20;2.65;;;11.60;99.90;;;10.92;100.00;101384.38;4186388;28;20435;-74
2023/07/06 01:35:01;;;;;;;5.07;2.30;;;11.60;99.90;;;10.85;100.00;101383.28;4169074;28;20017;-75
2023/07/06 01:37:22;;;;;;;4.88;2.63;;;11.50;99.90;;;10.93;100.00;101379.94;4186283;28;20028;-74
2023/07/06 01:39:28;;;;;;;5.40;2.13;;;11.60;99.90;;;10.87;100.00;101378.69;4169022;28;20441;-75
2023/07/06 01:41:29;;;;;;;5.78;2.33;;;11.60;99.90;;;10.91;100.00;101377.44;4168259;28;20021;-75
2023/07/06 01:43:30;;;;;;;4.75;2.45;;;11.50;99.90;;;10.80;100.00;101353.03;4186096;28;20029;-74
2023/07/06 01:45:31;;;;;;;5.95;2.70;;;11.50;99.90;;;10.89;100.00;101379.41;4186015;28;20086;-75
2023/07/06 01:47:38;;;;;;;3.58;2.30;;;11.50;99.90;;;10.88;100.00;101377.72;4168325;28;20013;-74
2023/07/06 01:49:40;;;;;;;6.60;2.70;;;11.50;99.90;;;10.80;100.00;101368.84;4168598;28;20029;-74
2023/07/06 01:52:20;;;;;;;6.53;2.90;;;11.50;99.90;;;10.85;100.00;101372.72;4151794;28;20022;-74
2023/07/06 01:54:32;;;;;;;8.43;2.50;;;11.50;99.90;;;10.81;100.00;101366.06;4199057;28;20099;-74
2023/07/06 01:56:52;;;;;;;9.38;3.45;;;11.40;99.90;;;10.81;100.00;101371.34;4168578;28;20033;-75
2023/07/06 01:59:04;;;;;;;4.45;2.60;;;11.40;99.90;;;10.81;100.00;101362.59;4168791;28;20025;-75
2023/07/06 02:01:23;;;;;;;4.72;2.90;;;11.40;99.90;;;10.79;100.00;101373.28;4168146;28;20496;-75
2023/07/06 02:03:26;;;;;;;5.85;2.72;;;11.40;99.90;;;10.77;100.00;101361.22;4170029;28;20033;-75
2023/07/06 02:05:27;;;;;;;4.35;3.08;;;11.40;99.90;;;10.70;100.00;101362.75;4167973;28;20025;-75
2023/07/06 02:07:28;;;;;;;6.22;2.45;;;11.40;99.90;;;10.72;100.00;101361.63;4167882;28;20025;-75
2023/07/06 02:09:30;;;;;;;4.15;2.80;;;11.40;99.90;;;10.66;100.00;101359.59;4184604;28;20040;-74
2023/07/06 02:11:32;;;;;;;7.43;2.80;;;11.30;99.90;;;10.60;100.00;101351.41;4167891;28;20056;-75
2023/07/06 02:13:33;;;;;;;4.95;3.35;;;11.30;99.90;;;10.60;100.00;101364.59;4168282;28;20025;-75
2023/07/06 02:15:33;;;;;;;5.85;2.85;;;11.30;99.90;;;10.55;100.00;101360.56;4185662;28;20036;-75
2023/07/06 02:17:36;;;;;;;7.68;3.03;;;11.20;99.90;;;10.48;100.00;101348.88;4185658;28;20439;-75
2023/07/06 02:19:38;;;;;;;3.78;2.55;;;11.20;99.90;;;10.49;100.00;101357.63;4168029;28;20042;-75
2023/07/06 02:21:39;;;;;;;5.68;2.67;;;11.10;99.90;;;10.48;100.00;101358.63;4167894;28;20034;-75
2023/07/06 02:23:40;;;;;;;6.13;3.22;;;11.20;99.90;;;10.44;100.00;101351.97;4185164;28;20032;-75
2023/07/06 02:25:42;;;;;;;7.07;2.83;;;11.10;99.90;;;10.45;100.00;101358.91;4167901;28;20566;-75
2023/07/06 02:27:43;;;;;;;4.03;3.15;;;11.10;99.90;;;10.43;100.00;101356.41;4185436;28;20017;-75
2023/07/06 02:29:44;;;;;;;6.20;2.60;;;11.10;99.90;;;10.40;100.00;101353.19;4185463;28;20392;-75
2023/07/06 02:31:46;;;;;;;5.10;3.20;;;11.10;99.90;;;10.40;100.00;101356.69;4167548;28;20020;-75
2023/07/06 02:33:47;;;;;;;5.75;3.25;;;11.00;99.90;;;10.36;100.00;101354.47;4185385;28;20036;-75
2023/07/06 02:35:48;;;;;;;7.43;3.30;;;11.00;99.90;;;10.33;100.00;101345.03;4167674;28;20029;-75
2023/07/06 02:37:48;;;;;;;8.70;3.13;;;11.00;99.90;;;10.38;100.00;101358.63;4185288;28;20090;-75
2023/07/06 02:39:50;;;;;;;6.93;2.75;;;11.00;99.90;;;10.37;100.00;101351.69;4184977;28;20396;-75
2023/07/06 02:41:53;;;;;;;8.27;4.28;;;11.00;99.90;;;10.33;100.00;101345.03;4167500;28;20452;-75
2023/07/06 02:43:53;;;;;;;5.22;3.13;;;11.00;99.90;;;10.25;100.00;101334.34;4167546;28;20029;-74
2023/07/06 02:45:54;;;;;;;4.10;2.95;;;11.00;99.90;;;10.32;100.00;101348.66;4185261;28;20064;-75
2023/07/06 02:47:55;;;;;;;6.60;3.13;;;11.00;99.90;;;10.35;100.00;101355.44;4167497;28;20022;-75
2023/07/06 02:49:56;;;;;;;6.88;3.30;;;11.00;99.90;;;10.33;100.00;101344.22;4185326;28;20025;-75
2023/07/06 02:51:57;;;;;;;4.60;2.72;;;11.00;99.90;;;10.32;100.00;101347.81;4185152;28;20488;-74
2023/07/06 02:53:58;;;;;;;5.95;2.80;;;10.90;99.90;;;10.31;100.00;101346.13;4185131;28;20032;-75
2023/07/06 02:55:58;;;;;;;4.95;3.17;;;10.90;99.90;;;10.27;100.00;101350.88;4184788;28;20025;-75
2023/07/06 02:57:59;;;;;;;7.10;3.13;;;10.90;99.90;;;10.26;100.00;101345.72;4167605;28;20056;-75
2023/07/06 03:00:00;;;;;;;5.32;2.97;;;11.00;99.90;;;10.13;100.00;101321.41;4150958;28;20052;-75
2023/07/06 03:02:03;;;;;;;4.88;2.92;;;10.90;99.90;;;10.23;100.00;101344.19;4167855;28;20040;-75
2023/07/06 03:04:11;;;;;;;5.00;3.00;;;10.90;99.90;;;10.21;100.00;101346.16;4167507;28;20045;-75
2023/07/06 03:06:12;;;;;;;7.53;3.50;;;10.80;99.90;;;10.17;100.00;101346.56;4183777;28;20534;-75
2023/07/06 03:08:13;;;;;;;12.63;3.72;;;10.80;99.90;;;10.14;100.00;101341.56;4185224;28;20029;-75
2023/07/06 03:10:17;;;;;;;7.18;3.40;;;10.80;99.90;;;10.10;100.00;101340.97;4185195;28;20025;-75
2023/07/06 03:12:19;;;;;;;5.40;2.78;;;10.80;99.90;;;10.09;100.00;101343.75;4167539;28;20072;-75
2023/07/06 03:14:25;;;;;;;4.05;3.10;;;10.70;99.90;;;10.02;100.00;101332.94;4185190;28;20108;-75
2023/07/06 03:16:27;;;;;;;5.43;2.88;;;10.70;99.90;;;9.92;100.00;101325.00;4167877;28;20485;-75
2023/07/06 03:18:28;;;;;;;4.28;3.05;;;10.70;99.90;;;10.06;100.00;101341.41;4184913;28;20022;-75
2023/07/06 03:20:29;;;;;;;5.45;2.90;;;10.70;99.90;;;10.03;100.00;101345.16;4184773;28;20103;-75
2023/07/06 03:22:31;;;;;;;4.85;3.03;;;10.60;99.90;;;10.00;100.00;101334.88;4167188;28;20104;-75
2023/07/06 03:24:32;;;;;;;6.82;3.38;;;10.60;99.90;;;10.01;100.00;101334.72;4184793;28;20037;-75
2023/07/06 03:26:39;;;;;;;4.35;2.53;;;10.60;99.90;;;9.91;100.00;101320.72;4184635;28;20025;-75
2023/07/06 03:28:40;;;;;;;6.18;3.10;;;10.60;99.90;;;9.95;100.00;101334.44;4167299;28;20024;-75
2023/07/06 03:30:43;;;;;;;6.03;2.95;;;10.60;99.90;;;9.94;100.00;101336.25;4184929;28;20013;-75
2023/07/06 03:32:44;;;;;;;5.53;2.80;;;10.60;99.90;;;9.93;100.00;101339.03;4183544;28;20021;-75
2023/07/06 03:34:45;;;;;;;5.25;3.03;;;10.60;99.90;;;9.78;100.00;101312.25;4184776;28;20025;-75
2023/07/06 03:36:46;;;;;;;6.35;2.42;;;10.50;99.90;;;9.87;100.00;101334.28;4184870;28;20033;-75
2023/07/06 03:38:49;;;;;;;5.82;3.15;;;10.50;99.90;;;9.82;100.00;101332.09;4167251;28;20080;-75
2023/07/06 03:40:51;;;;;;;5.13;3.10;;;10.50;99.90;;;9.79;100.00;101329.72;4167323;28;20648;-75
2023/07/06 03:42:55;;;;;;;6.57;2.85;;;10.50;99.90;;;9.82;100.00;101337.34;4150955;28;20058;-75
2023/07/06 03:44:56;;;;;;;5.38;2.88;;;10.50;99.90;;;9.80;100.00;101341.91;4184791;28;20093;-75
2023/07/06 03:46:58;;;;;;;7.97;3.22;;;10.50;99.90;;;9.73;100.00;101330.28;4150855;28;20034;-75
2023/07/06 03:48:59;;;;;;;4.43;2.92;;;10.50;99.90;;;9.74;100.00;101341.63;4150680;28;20022;-75
2023/07/06 03:51:07;;;;;;;5.30;2.50;;;10.40;99.90;;;9.76;100.00;101345.81;4167347;28;20025;-75
2023/07/06 03:53:08;;;;;;;8.00;3.00;;;10.40;99.90;;;9.74;100.00;101342.44;4187940;28;20385;-75
2023/07/06 03:55:15;;;;;;;5.40;2.53;;;10.40;99.90;;;9.74;100.00;101342.44;4187897;28;20032;-75
2023/07/06 03:57:16;;;;;;;3.58;2.40;;;10.40;99.90;;;9.77;100.00;101343.97;4153765;28;20113;-75
2023/07/06 03:59:17;;;;;;;7.68;3.30;;;10.40;99.90;;;9.75;100.00;101335.38;4187643;28;20028;-75
2023/07/06 04:01:18;;;;;;;5.97;3.35;;;10.40;99.90;;;9.77;100.00;101339.53;4169875;28;20546;-75
2023/07/06 04:03:19;;;;;;;6.20;3.05;;;10.40;99.90;;;9.72;100.00;101339.13;4187646;28;20031;-75
2023/07/06 04:05:24;;;;;;;3.92;2.67;;;10.40;99.90;;;9.78;100.00;101343.84;4187725;28;20017;-75
2023/07/06 04:07:25;;;;;;;5.65;2.72;;;10.40;99.90;;;9.77;100.00;101352.72;4187514;28;20025;-75
2023/07/06 04:09:28;;;;;;;4.90;2.95;;;10.40;99.90;;;9.75;100.00;101345.91;4187536;28;20108;-75
2023/07/06 04:11:29;;;;;;;7.93;3.92;;;10.40;99.90;;;9.76;100.00;101350.22;4169678;28;20073;-75
2023/07/06 04:13:29;;;;;;;7.80;3.15;;;10.40;99.90;;;9.72;100.00;101339.13;4169744;28;20025;-75
2023/07/06 04:15:32;;;;;;;4.18;3.10;;;10.40;99.90;;;9.75;100.00;101346.75;4169662;28;20088;-75
2023/07/06 04:17:36;;;;;;;6.07;2.85;;;10.40;99.90;;;9.76;100.00;101343.16;4170002;28;20026;-75
2023/07/06 04:19:37;;;;;;;7.38;2.75;;;10.40;99.90;;;9.76;100.00;101337.91;4187312;28;20121;-75
2023/07/06 04:21:37;;;;;;;6.07;2.75;;;10.40;99.90;;;9.78;100.00;101343.03;4169610;28;20033;-75
2023/07/06 04:23:38;;;;;;;4.05;2.75;;;10.40;99.90;;;9.75;100.00;101343.28;4187053;28;20444;-75
2023/07/06 04:25:39;;;;;;;7.88;3.08;;;10.40;99.90;;;9.79;100.00;101345.53;4169344;28;20028;-75
2023/07/06 04:27:42;;;;;;;6.57;3.22;;;10.40;99.90;;;9.79;100.00;101344.69;4187336;28;20025;-75
2023/07/06 04:29:44;;;;;;;5.20;2.30;;;10.40;99.90;;;9.77;100.00;101346.63;4187251;28;20465;-75
2023/07/06 04:31:46;;;;;;;6.55;3.60;;;10.40;99.90;;;9.79;100.00;101347.31;4187041;28;20108;-75
2023/07/06 04:33:47;;;;;;;4.22;2.88;;;10.40;99.90;;;9.80;100.00;101341.91;4187247;28;20036;-75
2023/07/06 04:35:52;;;;;;;6.50;3.22;;;10.40;99.90;;;9.81;100.00;101333.03;4169555;28;20509;-75
2023/07/06 04:37:53;;;;;;;5.60;2.75;;;10.50;99.90;;;9.83;100.00;101336.38;4169696;28;20025;-75
2023/07/06 04:39:54;;;;;;;4.93;2.65;;;10.50;99.90;;;9.85;100.00;101342.34;4169326;28;20453;-75
2023/07/06 04:41:55;;;;;;;5.43;3.38;;;10.50;99.90;;;9.72;100.00;101322.50;4169221;28;20493;-75
2023/07/06 04:43:56;;;;;;;5.13;2.75;;;10.50;99.90;;;9.77;100.00;101326.38;4169328;28;20100;-75
2023/07/06 04:45:57;;;;;;;6.40;3.38;;;10.50;99.90;;;9.87;100.00;101348.31;4169355;28;20033;-75
2023/07/06 04:47:58;;;;;;;4.80;2.78;;;10.50;99.90;;;9.90;100.00;101345.41;4187043;28;20021;-75
2023/07/06 04:49:59;;;;;;;5.32;2.55;;;10.50;99.90;;;9.90;100.00;101342.75;4169385;28;20061;-74
2023/07/06 04:52:00;;;;;;;3.75;2.60;;;10.50;99.90;;;9.92;100.00;101345.25;4186018;28;20028;-75
2023/07/06 04:54:03;;;;;;;7.20;2.90;;;10.50;99.90;;;9.94;100.00;101341.53;4186905;28;20059;-75
2023/07/06 04:56:04;;;;;;;6.22;3.38;;;10.60;99.90;;;9.98;100.00;101344.69;4186543;28;20051;-75
2023/07/06 04:58:05;;;;;;;4.55;2.38;;;10.60;99.90;;;10.01;100.00;101342.63;4187161;28;20029;-74
2023/07/06 05:00:18;;;;;;;5.60;2.55;;;10.60;99.90;;;10.00;100.00;101332.25;4186771;28;20086;-75
2023/07/06 05:02:22;;;;;;;6.78;2.75;;;10.60;99.90;;;10.02;100.00;101330.28;4170205;28;20037;-75
2023/07/06 05:04:23;;;;;;;7.60;2.70;;;10.60;99.90;;;10.09;100.00;101343.75;4169731;28;20417;-75
2023/07/06 05:06:24;;;;;;;8.18;3.08;;;10.60;99.90;;;10.10;100.00;101342.75;4168888;28;20033;-75
2023/07/06 05:08:25;;;;;;;5.93;2.40;;;10.70;99.90;;;10.15;100.00;101343.25;4169075;28;20493;-75
2023/07/06 05:10:27;;;;;;;6.00;2.92;;;10.70;99.90;;;10.14;100.00;101336.28;4186519;28;20396;-75
2023/07/06 05:12:28;;;;;;;6.75;2.38;;;10.80;99.90;;;10.19;100.00;101347.25;4168773;28;20025;-75
2023/07/06 05:14:29;;;;;;;3.95;2.95;;;10.80;99.90;;;10.21;100.00;101343.53;4152498;28;20092;-75
2023/07/06 05:16:30;;;;;;;7.53;2.70;;;10.80;99.90;;;10.22;100.00;101336.41;4186496;28;20035;-74
2023/07/06 05:18:31;;;;;;;5.60;2.90;;;10.80;99.90;;;10.27;100.00;101345.59;4168808;28;20025;-75
2023/07/06 05:20:33;;;;;;;4.63;2.50;;;10.80;99.90;;;10.28;100.00;101341.13;4186290;28;20048;-75
2023/07/06 05:22:39;;;;;;;3.88;2.63;;;10.90;99.90;;;10.34;100.00;101351.13;4155224;28;20029;-74
2023/07/06 05:24:40;;;;;;;5.55;2.80;;;10.90;99.90;;;10.38;100.00;101353.34;4169407;28;20109;-75
2023/07/06 05:26:41;;;;;;;3.25;2.17;;;10.90;99.90;;;10.39;100.00;101346.28;4186145;28;20033;-75
2023/07/06 05:28:42;;;;;;;6.00;2.85;;;10.90;99.90;;;10.39;100.00;101339.19;4186225;28;20025;-74
2023/07/06 05:30:43;;;;;;;4.63;2.55;;;11.00;99.90;;;10.44;100.00;101336.13;4168788;28;20029;-74
2023/07/06 05:32:44;;;;;;;6.18;3.10;;;11.00;99.90;;;10.49;100.00;101331.25;4186297;28;20021;-74
2023/07/06 05:34:45;;;;;;;7.88;2.45;;;11.10;99.90;;;10.60;100.00;101343.47;4168553;28;20044;-75
2023/07/06 05:36:46;;;;;;;6.35;2.65;;;11.10;99.90;;;10.65;100.00;101336.81;4186116;28;20052;-75
2023/07/06 05:38:47;;;;;;;4.03;2.60;;;11.10;99.90;;;10.69;100.00;101334.72;4184961;28;20114;-75
2023/07/06 05:40:48;;;;;;;5.03;2.75;;;11.20;99.90;;;10.69;100.00;101332.09;4168331;28;20083;-75
2023/07/06 05:42:49;;;;;;;4.28;2.35;;;11.30;99.90;;;10.80;100.00;101345.09;4186136;28;20032;-75
2023/07/06 05:44:50;;;;;;;4.57;2.58;;;11.30;99.90;;;10.86;100.00;101342.72;4168239;28;20033;-75
2023/07/06 05:46:51;;;;;;;6.47;3.28;;;11.40;99.90;;;10.93;100.00;101345.63;4185637;28;20383;-74
2023/07/06 05:48:53;;;;;;;5.13;3.28;;;11.40;99.90;;;10.95;100.00;101336.59;4186008;28;20017;-75
2023/07/06 05:50:54;;;;;;;6.57;3.30;;;11.50;99.90;;;11.04;100.00;101334.88;4186166;28;20392;-75
2023/07/06 05:52:55;;;;;;;9.23;2.65;;;11.60;99.90;;;11.20;100.00;101348.28;4168335;28;20029;-75
2023/07/06 05:54:56;;;;;;;11.88;4.20;;;11.70;99.90;;;11.29;100.00;101339.50;4168342;28;20029;-75
2023/07/06 05:57:00;;;;;;;4.22;3.17;;;11.80;99.90;;;11.38;100.00;101332.53;4168097;28;20417;-75
2023/07/06 05:59:01;;;;;;;3.88;2.65;;;11.90;99.90;;;11.54;100.00;101344.09;4152000;28;20034;-75
2023/07/06 06:01:02;;;;;;;4.68;2.85;;;12.00;99.90;;;11.53;100.00;101328.38;4184151;28;20036;-74
2023/07/06 06:03:03;;;;;;;4.30;3.35;;;12.10;99.90;;;11.74;100.00;101338.75;4185875;28;20021;-74
2023/07/06 06:05:05;;;;;;;7.68;3.65;;;12.20;99.90;;;11.81;100.00;101339.81;4185718;28;20029;-74
2023/07/06 06:07:07;;;;;;;4.70;2.58;;;12.30;99.90;;;11.92;100.00;101336.94;4151979;28;20017;-75
2023/07/06 06:09:08;;;;;;;5.45;2.92;;;12.40;99.90;;;12.03;100.00;101339.38;4167936;28;20024;-75
2023/07/06 06:11:10;;;;;;;7.50;3.25;;;12.40;99.90;;;12.18;100.00;101343.97;4184230;28;20061;-74
2023/07/06 06:13:11;;;;;;;10.10;3.35;;;12.60;99.90;;;12.29;100.00;101331.50;4185750;28;20090;-74
2023/07/06 06:15:12;;;;;;;5.43;3.10;;;12.70;99.90;;;12.52;100.00;101346.75;4185064;28;20059;-75
2023/07/06 06:17:15;;;;;;;6.10;3.03;;;12.80;99.90;;;12.71;100.00;101335.97;4185636;28;20017;-75
2023/07/06 06:19:16;;;;;;;5.35;2.63;;;13.00;99.90;;;12.90;100.00;101334.94;4167917;28;20052;-75
2023/07/06 06:21:16;;;;;;;5.15;2.83;;;13.20;99.90;;;13.10;100.00;101336.41;4167704;28;20029;-75
2023/07/06 06:23:20;;;;;;;7.63;2.85;;;13.30;99.90;;;13.24;100.00;101335.81;4167737;28;20021;-75
2023/07/06 06:25:21;;;;;;;5.88;3.03;;;13.50;99.90;;;13.36;100.00;101335.50;4167385;28;20021;-75
2023/07/06 06:27:22;;;;;;;4.05;2.45;;;13.60;99.90;;;13.40;100.00;101328.91;4167675;28;20123;-75
2023/07/06 06:29:22;;;;;;;5.22;2.85;;;13.70;99.90;;;13.37;100.00;101322.13;4151586;28;20026;-75
2023/07/06 06:31:24;;;;;;;5.15;2.63;;;13.80;99.90;;;13.50;100.00;101341.03;4185741;28;20017;-75
2023/07/06 06:33:25;;;;;;;5.22;2.63;;;13.90;99.90;;;13.52;100.00;101330.28;4200562;28;20036;-75
2023/07/06 06:35:28;;;;;;;4.53;2.65;;;14.00;99.90;;;13.58;100.00;101341.09;4167926;28;20033;-74
2023/07/06 06:37:29;;;;;;;6.35;2.85;;;14.00;99.90;;;13.55;100.00;101330.81;4185777;28;20111;-75
2023/07/06 06:39:34;;;;;;;6.20;2.88;;;14.10;99.90;;;13.67;100.00;101331.31;4167731;28;20033;-75
2023/07/06 06:41:39;;;;;;;4.90;2.97;;;14.20;99.90;;;13.75;100.00;101331.34;4167604;28;20436;-75
2023/07/06 06:43:44;;;;;;;6.07;3.25;;;14.20;99.90;;;13.77;100.00;101335.47;4185256;28;20029;-75
2023/07/06 06:45:45;;;;;;;4.43;2.88;;;14.30;99.90;;;13.82;100.00;101335.84;4167911;28;20026;-75
2023/07/06 06:47:46;;;;;;;7.10;3.40;;;14.30;99.90;;;13.88;100.00;101344.13;4151011;28;20026;-75
2023/07/06 06:49:47;;;;;;;7.95;2.75;;;14.40;99.90;;;13.92;100.00;101343.63;4185394;28;20017;-75
2023/07/06 06:51:48;;;;;;;7.20;3.15;;;14.50;99.90;;;13.96;100.00;101344.97;4167379;28;20033;-74
2023/07/06 06:53:48;;;;;;;7.13;3.67;;;14.50;99.90;;;14.01;100.00;101339.19;4185218;28;20033;-75
2023/07/06 06:55:49;;;;;;;7.50;2.92;;;14.60;99.90;;;14.08;100.00;101348.16;4167362;28;20034;-75
2023/07/06 06:57:50;;;;;;;4.40;2.40;;;14.70;99.90;;;14.15;100.00;101343.84;4184885;28;20028;-75
2023/07/06 06:59:53;;;;;;;4.75;3.15;;;14.70;99.90;;;14.14;100.00;101334.22;4185465;28;20048;-75
2023/07/06 07:01:54;;;;;;;7.90;3.80;;;14.70;99.90;;;14.09;100.00;101324.13;4185377;28;20021;-75
2023/07/06 07:03:55;;;;;;;2.88;2.40;;;14.80;99.90;;;14.28;100.00;101342.34;4167173;28;20092;-74
2023/07/06 07:06:11;;;;;;;4.32;2.35;;;14.90;99.90;;;14.32;100.00;101341.06;4185119;28;20033;-75
2023/07/06 07:08:12;;;;;;;7.05;2.92;;;14.90;99.90;;;14.38;100.00;101337.75;4168756;28;20056;-75
2023/07/06 07:10:13;;;;;;;7.00;3.17;;;14.90;99.90;;;14.43;100.00;101339.06;4184876;28;20056;-75
2023/07/06 07:12:14;;;;;;;6.55;3.13;;;15.00;99.90;;;14.48;100.00;101328.78;4184965;28;20036;-75
2023/07/06 07:14:15;;;;;;;4.75;2.90;;;15.00;99.90;;;14.50;100.00;101337.41;4185147;28;20488;-75
2023/07/06 07:16:17;;;;;;;7.57;3.08;;;15.00;99.90;;;14.54;100.00;101328.97;4167573;28;20041;-75
2023/07/06 07:18:20;;;;;;;5.22;2.92;;;15.10;99.90;;;14.65;100.00;101339.22;4167544;28;20033;-74
2023/07/06 07:20:21;;;;;;;5.35;2.65;;;15.20;99.90;;;14.62;100.00;101331.59;4184783;28;20530;-75
2023/07/06 07:22:22;;;;;;;9.27;2.78;;;15.20;99.90;;;14.77;100.00;101332.56;4185006;28;20033;-75
2023/07/06 07:24:23;;;;;;;5.78;3.28;;;15.30;99.90;;;14.82;100.00;101332.06;4184912;28;20064;-75
2023/07/06 07:26:25;;;;;;;4.65;2.88;;;15.40;99.90;;;14.88;100.00;101337.53;4168254;28;20018;-75
2023/07/06 07:28:27;;;;;;;4.40;2.53;;;15.40;99.90;;;14.87;100.00;101329.75;4154247;28;20026;-75
2023/07/06 07:30:28;;;;;;;3.90;2.30;;;15.40;99.90;;;14.93;100.00;101332.53;4170574;28;20100;-75
2023/07/06 07:32:29;;;;;;;4.18;1.90;;;15.50;99.90;;;14.90;100.00;101318.78;4188198;28;20040;-75
2023/07/06 07:34:32;;;;;;;3.95;2.45;;;15.50;99.90;;;15.03;100.00;101339.47;4188293;28;20104;-75
2023/07/06 07:36:33;;;;;;;4.38;2.35;;;15.60;99.90;;;15.05;100.00;101334.84;4170533;28;20103;-75
2023/07/06 07:38:36;;;;;;;3.20;2.33;;;15.70;99.90;;;15.13;100.00;101340.97;4170490;28;20025;-75
2023/07/06 07:40:37;;;;;;;4.15;2.75;;;15.70;99.90;;;15.20;100.00;101341.09;4170187;28;20120;-75
2023/07/06 07:42:37;;;;;;;5.70;3.05;;;15.70;99.90;;;15.19;100.00;101329.66;4170237;28;20039;-75
2023/07/06 07:44:39;;;;;;;4.35;2.40;;;15.80;99.90;;;15.25;100.00;101318.31;4187816;28;20032;-75
2023/07/06 07:46:40;;;;;;;6.97;2.50;;;15.90;99.90;;;15.39;100.00;101332.72;4188103;28;20025;-75
2023/07/06 07:48:45;;;;;;;4.78;2.00;;;16.00;99.90;;;15.32;100.00;101313.97;4187914;28;20025;-75
2023/07/06 07:50:56;;;;;;;6.88;2.55;;;16.00;99.90;;;15.49;100.00;101330.72;4187885;28;20397;-75
2023/07/06 07:52:57;;;;;;;5.00;2.22;;;16.10;99.90;;;15.55;100.00;101319.38;4170455;28;20110;-75
2023/07/06 07:54:58;;;;;;;5.05;2.30;;;16.20;99.90;;;15.65;100.00;101319.16;4188003;28;20037;-75
2023/07/06 07:56:59;;;;;;;8.48;2.92;;;16.30;99.90;;;15.86;100.00;101336.16;4169934;28;20029;-75
2023/07/06 07:58:59;;;;;;;5.35;2.83;;;16.40;99.90;;;15.95;100.00;101332.44;4170069;28;20099;-75
2023/07/06 08:01:05;;;;;;;9.35;2.67;;;16.50;99.90;;;16.05;100.00;101333.03;4169935;28;20041;-75
2023/07/06 08:03:07;;;;;;;5.25;2.10;;;16.60;99.90;;;16.21;100.00;101334.75;4170106;28;20036;-75
2023/07/06 08:05:09;;;;;;;5.55;2.35;;;16.70;99.90;;;16.27;100.00;101333.22;4187459;28;20043;-75
2023/07/06 08:07:11;;;;;;;9.63;2.22;;;16.80;99.90;;;16.37;100.00;101334.59;4187677;28;20025;-75
2023/07/06 08:09:13;;;;;;;7.70;1.75;;;16.90;99.90;;;16.49;100.00;101325.19;4169671;28;20026;-75
2023/07/06 08:11:20;;;;;;;7.10;2.53;;;17.00;99.90;;;16.67;100.00;101334.72;4202685;28;20025;-75
2023/07/06 08:13:21;;;;;;;5.28;2.10;;;17.10;99.90;;;16.79;100.00;101328.75;4187621;28;20087;-75
2023/07/06 08:15:22;;;;;;;4.45;1.90;;;17.30;99.90;;;16.87;100.00;101318.03;4186123;28;20022;-76
2023/07/06 08:17:23;;;;;;;5.45;1.83;;;17.40;99.90;;;17.06;100.00;101319.31;4202950;28;20063;-75
2023/07/06 08:19:24;;;;;;;3.28;1.73;;;17.50;99.90;;;17.06;100.00;101306.81;4185509;28;20439;-75
2023/07/06 08:21:26;;;;;;;2.92;1.20;;;17.60;99.90;;;17.34;100.00;101316.81;4180468;28;20404;-75
2023/07/06 08:23:28;;;;;;;8.20;1.92;;;17.70;99.90;;;17.43;100.00;101313.88;4185943;28;20021;-75
2023/07/06 08:25:37;;;;;;;3.38;1.40;;;17.90;99.90;;;17.54;100.00;101317.88;4185830;28;20178;-75
2023/07/06 08:27:39;;;;;;;3.03;1.33;;;18.00;99.90;;;17.65;100.00;101310.25;4170033;28;20056;-75
2023/07/06 08:29:43;;;;;;;2.05;1.15;;;18.10;99.90;;;17.81;100.00;101316.38;4169804;28;20473;-75
2023/07/06 08:31:45;;;;;;;3.38;1.33;;;18.20;99.90;;;17.97;100.00;101316.13;4186813;28;20086;-75
2023/07/06 08:33:48;;;;;;;5.30;1.63;;;18.30;99.90;;;18.06;99.09;101304.31;4187312;28;20061;-75